World Is Not Enough — 9HZH8 — position and weather

sailwx.info

Track history (hours):
 
Tides and Currents Weather Stations Pressure Air Temp Water Temp Dewpoint Dewpoint Depression Visibility Wind Speed Wind Dir Waves Ship Positions

World Is Not Enough

Last reported at 2017-Mar-21 15:26 UTC. Time now 2017-May-01 02:35 UTC.
Position N 39°34' E 002°38'.
Warning: this ship's position is 40 days out of date.

Length 40 m; draft 1.7 m.

Type: Pleasure craft. MMSI: 256636000.

Date/timePositionNaut miles runAvg speedWind from/ knotsBaromVisibWave heightAir tempDewpointWater temp
2017-Mar-21 15:26N 39°34' E 002°38'1 0.9
2017-Mar-21 14:33N 39°34' E 002°39'0 0.1
2017-Mar-21 13:32N 39°33' E 002°39'0 0.0
2017-Mar-21 12:32N 39°33' E 002°39'1 1.5
2017-Mar-21 11:33N 39°32' E 002°38'2 2.3
2017-Mar-21 10:30N 39°31' E 002°35'1 1.0
2017-Mar-21 09:33N 39°30' E 002°35'9 8.7
2017-Mar-21 08:33N 39°27' E 002°24'11 9.2
2017-Mar-21 07:18N 39°27' E 002°09'7 9.2
2017-Mar-21 06:33N 39°27' E 002°00'9 9.1
2017-Mar-21 05:33N 39°27' E 001°48'10 9.3
2017-Mar-21 04:30N 39°27' E 001°36'  
Track history (hours):
 
Tides and Currents Weather Stations Pressure Air Temp Water Temp Dewpoint Dewpoint Depression Visibility Wind Speed Wind Dir Waves Ship Positions

World Is Not Enough

Last reported at 2017-Mar-21 15:26 UTC. Time now 2017-May-01 02:35 UTC.
Position N 39°34' E 002°38'.
Warning: this ship's position is 40 days out of date.

Length 40 m; draft 1.7 m.

Type: Pleasure craft. MMSI: 256636000.

Date/timePositionNaut miles runAvg speedWind from/ knotsBaromVisibWave heightAir tempDewpointWater temp
2017-Mar-21 15:26N 39°34' E 002°38'1 0.9
2017-Mar-21 14:33N 39°34' E 002°39'0 0.1
2017-Mar-21 13:32N 39°33' E 002°39'0 0.0
2017-Mar-21 12:32N 39°33' E 002°39'1 1.5
2017-Mar-21 11:33N 39°32' E 002°38'2 2.3
2017-Mar-21 10:30N 39°31' E 002°35'1 1.0
2017-Mar-21 09:33N 39°30' E 002°35'9 8.7
2017-Mar-21 08:33N 39°27' E 002°24'11 9.2
2017-Mar-21 07:18N 39°27' E 002°09'7 9.2
2017-Mar-21 06:33N 39°27' E 002°00'9 9.1
2017-Mar-21 05:33N 39°27' E 001°48'10 9.3
2017-Mar-21 04:30N 39°27' E 001°36'  

Dump ship's entire track history